Time;durP1;ratioP1;P1;durP2;ratioP2;P2;SDS_P1;SDS_P2;PMS_P1;PMS_P2;Temp;Humidity;BMP_temperature;BMP_pressure;BME280_temperature;BME280_humidity;BME280_pressure;Samples;Min_cycle;Max_cycle;Signal;HPM_P1;HPM_P2
2023/05/19 00:02:04;;;;;;;19.00;11.80;;;;;;;11.59;100.00;101323.36;105744;1254;67970;-41
2023/05/19 00:04:34;;;;;;;20.10;11.10;;;;;;;11.55;100.00;101317.70;105816;1253;74377;-43
2023/05/19 00:07:01;;;;;;;26.00;11.30;;;;;;;11.50;100.00;101315.66;105712;1260;63934;-43
2023/05/19 00:09:28;;;;;;;21.20;11.80;;;;;;;11.48;100.00;101313.77;105703;1259;62986;-44
2023/05/19 00:11:56;;;;;;;13.50;11.40;;;;;;;11.46;100.00;101308.95;105827;1257;75702;-43
2023/05/19 00:14:24;;;;;;;16.10;11.10;;;;;;;11.45;100.00;101304.80;105799;1257;68246;-43
2023/05/19 00:16:54;;;;;;;16.00;11.50;;;;;;;11.47;100.00;101300.29;105820;1257;75378;-43
2023/05/19 00:19:23;;;;;;;16.10;11.80;;;;;;;11.46;100.00;101302.71;105838;1257;64478;-43
2023/05/19 00:21:51;;;;;;;14.20;11.60;;;;;;;11.46;100.00;101293.22;105858;1254;62946;-43
2023/05/19 00:24:18;;;;;;;20.90;11.80;;;;;;;11.43;100.00;101291.17;105782;1257;75402;-43
2023/05/19 00:26:46;;;;;;;22.40;11.90;;;;;;;11.40;100.00;101286.02;105622;1254;66857;-43
2023/05/19 00:29:17;;;;;;;23.30;12.90;;;;;;;11.35;100.00;101286.56;105657;1258;73414;-44
2023/05/19 00:31:45;;;;;;;23.20;12.70;;;;;;;11.32;100.00;101282.80;105911;1256;64454;-43
2023/05/19 00:34:12;;;;;;;19.00;12.10;;;;;;;11.29;100.00;101281.27;105813;1257;61672;-43
2023/05/19 00:36:39;;;;;;;19.30;12.00;;;;;;;11.26;100.00;101278.18;105774;1254;74489;-43
2023/05/19 00:39:07;;;;;;;18.70;11.70;;;;;;;11.22;100.00;101273.89;105718;1259;68458;-43
2023/05/19 00:41:34;;;;;;;23.40;12.60;;;;;;;11.18;100.00;101273.41;105692;1256;74077;-43
2023/05/19 00:44:01;;;;;;;17.90;13.30;;;;;;;11.12;100.00;101268.61;105805;1259;63135;-43
2023/05/19 00:46:29;;;;;;;17.60;13.20;;;;;;;11.07;100.00;101269.52;105851;1258;61735;-43
2023/05/19 00:48:56;;;;;;;19.40;13.00;;;;;;;11.03;100.00;101265.94;105821;1253;75610;-43
2023/05/19 00:51:26;;;;;;;19.70;12.30;;;;;;;10.98;100.00;101267.84;105799;1254;67030;-43
2023/05/19 00:53:53;;;;;;;17.90;12.10;;;;;;;10.94;100.00;101268.57;105686;1254;75040;-43
2023/05/19 00:56:21;;;;;;;19.30;12.70;;;;;;;10.91;100.00;101269.98;105822;1259;63705;-43
2023/05/19 00:58:49;;;;;;;22.50;11.90;;;;;;;10.89;100.00;101268.95;105840;1253;62989;-43
2023/05/19 01:01:20;;;;;;;20.10;12.10;;;;;;;10.86;100.00;101271.05;105846;1252;74775;-46
2023/05/19 01:03:48;;;;;;;19.40;13.00;;;;;;;10.82;100.00;101266.40;105804;1253;68326;-43
2023/05/19 01:06:17;;;;;;;21.40;13.50;;;;;;;10.78;100.00;101267.48;105623;1254;75336;-45
2023/05/19 01:08:45;;;;;;;16.10;12.60;;;;;;;10.72;100.00;101269.22;105818;1253;64763;-46
2023/05/19 01:11:12;;;;;;;17.90;12.50;;;;;;;10.68;100.00;101269.08;105821;1260;62241;-41
2023/05/19 01:13:39;;;;;;;19.00;13.50;;;;;;;10.64;100.00;101272.74;105823;1257;75264;-41
2023/05/19 01:16:12;;;;;;;21.40;14.40;;;;;;;10.59;100.00;101272.24;105842;1255;66774;-41
2023/05/19 01:18:54;;;;;;;20.80;13.10;;;;;;;10.55;100.00;101274.52;105834;1258;74091;-42
2023/05/19 01:21:54;;;;;;;16.10;13.20;;;;;;;10.50;100.00;101280.59;105853;1257;63514;-41
2023/05/19 01:24:45;;;;;;;18.70;11.80;;;;;;;10.47;100.00;101279.71;105808;1257;61710;-43
2023/05/19 01:27:31;;;;;;;20.80;13.10;;;;;;;10.48;100.00;101284.89;105868;1253;76113;-42
2023/05/19 01:30:07;;;;;;;20.10;13.30;;;;;;;10.44;100.00;101285.77;105811;1254;65747;-42
2023/05/19 01:32:34;;;;;;;28.10;12.80;;;;;;;10.42;100.00;101295.27;105753;1254;75299;-42
2023/05/19 01:35:02;;;;;;;18.50;12.40;;;;;;;10.41;100.00;101309.23;105682;1257;63063;-42
2023/05/19 01:37:30;;;;;;;18.20;11.60;;;;;;;10.38;100.00;101318.73;105735;1252;61942;-42
2023/05/19 01:39:57;;;;;;;16.00;11.90;;;;;;;10.35;100.00;101325.82;105828;1251;75849;-43
2023/05/19 01:42:24;;;;;;;23.20;13.60;;;;;;;10.32;100.00;101334.62;105847;1256;68430;-42
2023/05/19 01:44:52;;;;;;;22.20;12.30;;;;;;;10.30;100.00;101346.88;105827;1254;73736;-42
2023/05/19 01:47:19;;;;;;;19.30;13.20;;;;;;;10.27;100.00;101354.14;105945;1256;64216;-42
2023/05/19 01:49:46;;;;;;;16.70;13.70;;;;;;;10.24;100.00;101361.73;105872;1257;61698;-43
2023/05/19 01:52:14;;;;;;;20.70;12.80;;;;;;;10.24;100.00;101364.67;105866;1252;74393;-43
2023/05/19 01:54:41;;;;;;;27.80;13.30;;;;;;;10.29;100.00;101360.86;105843;1257;66620;-42
2023/05/19 01:57:18;;;;;;;19.40;13.10;;;;;;;10.33;100.00;101358.93;105679;1254;74507;-42
2023/05/19 01:59:58;;;;;;;17.10;12.60;;;;;;;10.32;100.00;101354.80;105858;1251;64599;-42
2023/05/19 02:02:33;;;;;;;18.70;13.90;;;;;;;10.33;100.00;101350.48;105915;1257;62934;-42
2023/05/19 02:05:06;;;;;;;19.50;14.30;;;;;;;10.33;100.00;101350.14;105907;1251;75224;-42
2023/05/19 02:08:15;;;;;;;20.80;13.70;;;;;;;10.32;100.00;101346.86;105986;1251;67663;-42
2023/05/19 02:10:44;;;;;;;20.30;13.50;;;;;;;10.32;100.00;101342.55;105708;1258;73750;-43
2023/05/19 02:13:13;;;;;;;18.20;12.90;;;;;;;10.32;100.00;101345.14;105901;1256;63113;-42
2023/05/19 02:15:41;;;;;;;17.90;13.20;;;;;;;10.33;100.00;101342.73;105839;1252;62708;-42
2023/05/19 02:18:11;;;;;;;18.30;13.20;;;;;;;10.37;100.00;101338.76;105749;1258;76790;-42
2023/05/19 02:20:39;;;;;;;17.90;12.10;;;;;;;10.44;100.00;101336.50;105703;1251;67525;-42
2023/05/19 02:23:06;;;;;;;27.20;13.20;;;;;;;10.48;100.00;101336.50;105900;1256;75310;-42
2023/05/19 02:25:34;;;;;;;22.20;14.20;;;;;;;10.50;100.00;101337.20;105930;1256;61885;-42
2023/05/19 02:28:01;;;;;;;18.70;14.80;;;;;;;10.53;100.00;101337.34;105834;1258;62227;-42
2023/05/19 02:30:30;;;;;;;22.60;12.70;;;;;;;10.55;100.00;101335.09;105853;1256;75291;-42
2023/05/19 02:32:59;;;;;;;16.70;12.10;;;;;;;10.59;100.00;101340.92;105890;1251;67941;-42
2023/05/19 02:35:26;;;;;;;19.20;12.20;;;;;;;10.61;100.00;101333.51;105888;1257;74309;-42
2023/05/19 02:37:54;;;;;;;33.70;12.80;;;;;;;10.61;100.00;101333.34;105726;1251;62571;-42
2023/05/19 02:40:21;;;;;;;23.90;13.90;;;;;;;10.62;100.00;101332.46;105922;1251;62486;-42
2023/05/19 02:42:49;;;;;;;18.90;13.40;;;;;;;10.67;100.00;101327.61;105785;1251;76309;-42
2023/05/19 02:45:16;;;;;;;28.10;14.70;;;;;;;10.72;100.00;101327.58;105851;1256;68677;-42
2023/05/19 02:47:44;;;;;;;32.20;16.50;;;;;;;10.76;100.00;101331.36;105754;1257;74420;-42
2023/05/19 02:50:12;;;;;;;29.40;15.40;;;;;;;10.81;100.00;101338.59;105758;1260;62112;-42
2023/05/19 02:52:39;;;;;;;27.90;15.20;;;;;;;10.88;100.00;101347.17;105884;1256;61996;-42
2023/05/19 02:55:07;;;;;;;34.00;16.50;;;;;;;10.95;100.00;101359.40;105859;1251;76588;-42
2023/05/19 02:57:34;;;;;;;28.50;15.30;;;;;;;11.03;100.00;101381.30;105944;1256;68250;-44
2023/05/19 03:00:02;;;;;;;26.10;13.00;;;;;;;11.08;100.00;101393.35;105685;1257;75213;-42
2023/05/19 03:02:29;;;;;;;25.70;12.70;;;;;;;11.16;100.00;101417.33;105862;1258;64150;-42
2023/05/19 03:05:00;;;;;;;17.30;12.30;;;;;;;11.23;100.00;101435.42;105916;1257;61636;-42
2023/05/19 03:07:27;;;;;;;18.10;11.30;;;;;;;11.31;100.00;101446.80;105802;1256;75313;-43
2023/05/19 03:09:54;;;;;;;23.10;12.40;;;;;;;11.40;100.00;101455.21;105832;1251;67481;-44
2023/05/19 03:12:21;;;;;;;22.00;12.20;;;;;;;11.49;100.00;101445.30;105503;1254;74150;-42
2023/05/19 03:14:49;;;;;;;29.90;11.50;;;;;;;11.58;100.00;101427.79;105659;1254;63390;-42
2023/05/19 03:17:16;;;;;;;17.50;12.00;;;;;;;11.65;100.00;101378.45;105915;1256;63031;-42
2023/05/19 03:19:43;;;;;;;17.50;12.00;;;;;;;11.72;100.00;101327.05;105708;1251;75959;-42
2023/05/19 03:22:10;;;;;;;20.90;11.50;;;;;;;11.80;100.00;101275.10;105898;1253;66696;-42
2023/05/19 03:24:38;;;;;;;18.50;12.40;;;;;;;11.88;100.00;101211.88;105860;1254;75769;-42
2023/05/19 03:27:06;;;;;;;18.50;11.50;;;;;;;11.98;100.00;101154.86;105881;1254;62146;-42
2023/05/19 03:29:33;;;;;;;17.60;11.10;;;;;;;12.11;100.00;101099.52;105848;1256;61682;-42
2023/05/19 03:32:01;;;;;;;14.90;10.50;;;;;;;12.25;100.00;101044.81;105762;1257;76591;-43
2023/05/19 03:34:31;;;;;;;15.20;10.50;;;;;;;12.43;100.00;100997.63;105669;1251;66816;-43
2023/05/19 03:36:58;;;;;;;17.40;10.30;;;;;;;12.62;100.00;100935.48;105789;1258;75575;-43
2023/05/19 03:39:25;;;;;;;18.20;11.10;;;;;;;12.80;100.00;100865.33;105677;1259;62968;-49
2023/05/19 03:41:53;;;;;;;23.00;11.80;;;;;;;12.98;100.00;100812.48;105919;1260;62208;-43
2023/05/19 03:44:20;;;;;;;21.40;10.90;;;;;;;13.13;100.00;100775.38;105860;1260;75208;-42
2023/05/19 03:46:47;;;;;;;19.40;11.10;;;;;;;13.31;100.00;100750.00;105700;1251;65888;-43
2023/05/19 03:49:33;;;;;;;19.20;9.40;;;;;;;13.56;100.00;100732.23;105809;1259;75546;-43
2023/05/19 03:52:32;;;;;;;19.80;10.30;;;;;;;13.90;100.00;100730.80;105845;1257;61986;-41
2023/05/19 03:55:08;;;;;;;12.60;9.90;;;;;;;14.27;100.00;100736.19;105897;1256;62877;-41
2023/05/19 03:57:36;;;;;;;15.80;10.00;;;;;;;14.63;100.00;100748.81;105903;1257;75646;-42
2023/05/19 04:00:05;;;;;;;16.50;10.10;;;;;;;14.99;100.00;100775.02;105885;1251;66290;-42
2023/05/19 04:02:38;;;;;;;13.00;9.70;;;;;;;15.36;100.00;100806.00;105741;1254;74546;-42
2023/05/19 04:05:07;;;;;;;15.00;9.20;;;;;;;15.66;100.00;100841.52;105894;1254;61987;-42
2023/05/19 04:07:37;;;;;;;12.60;9.20;;;;;;;15.96;100.00;100876.06;105725;1267;61418;-43
2023/05/19 04:10:06;;;;;;;16.20;9.30;;;;;;;16.21;100.00;100906.70;105696;1251;73413;-44
2023/05/19 04:12:34;;;;;;;18.40;9.10;;;;;;;16.44;100.00;100936.21;105894;1251;67117;-45
2023/05/19 04:15:01;;;;;;;13.00;8.90;;;;;;;16.68;100.00;100960.81;105672;1257;74206;-43
2023/05/19 04:17:28;;;;;;;12.10;8.80;;;;;;;16.92;100.00;100978.42;105834;1254;63066;-44
2023/05/19 04:19:56;;;;;;;16.90;9.40;;;;;;;17.15;100.00;100992.58;105875;1257;61905;-45
2023/05/19 04:22:23;;;;;;;22.90;10.00;;;;;;;17.34;100.00;101008.63;105811;1256;76542;-41
2023/05/19 04:24:51;;;;;;;29.60;9.60;;;;;;;17.49;100.00;101022.70;105858;1251;67290;-44
2023/05/19 04:27:20;;;;;;;16.10;9.00;;;;;;;17.66;100.00;101025.54;105872;1260;74298;-42
2023/05/19 04:29:48;;;;;;;15.40;9.30;;;;;;;17.80;99.33;101040.21;105840;1256;61549;-42
2023/05/19 04:32:18;;;;;;;16.80;9.40;;;;;;;17.98;93.03;101043.49;105808;1257;62472;-43
2023/05/19 04:34:47;;;;;;;17.50;8.40;;;;;;;18.16;86.16;101045.77;105603;1261;74557;-42
2023/05/19 04:37:19;;;;;;;23.50;9.50;;;;;;;18.32;80.77;101049.49;105842;1257;68089;-43
2023/05/19 04:39:47;;;;;;;30.70;10.40;;;;;;;18.49;78.79;101058.39;105874;1260;73922;-42
2023/05/19 04:42:18;;;;;;;18.80;9.50;;;;;;;18.66;75.01;101055.58;105754;1259;62605;-43
2023/05/19 04:44:50;;;;;;;28.60;9.90;;;;;;;18.83;72.00;101049.08;105865;1252;62641;-43
2023/05/19 04:47:20;;;;;;;19.80;9.00;;;;;;;18.95;68.77;101046.31;105730;1259;74437;-42
2023/05/19 04:49:47;;;;;;;12.00;9.10;;;;;;;19.03;66.70;101047.20;105829;1260;67280;-42
2023/05/19 04:52:20;;;;;;;14.10;9.00;;;;;;;19.08;64.95;101040.16;105885;1257;74105;-42
2023/05/19 04:54:48;;;;;;;16.20;9.10;;;;;;;19.18;64.05;101043.40;105893;1257;62450;-42
2023/05/19 04:57:16;;;;;;;12.20;8.60;;;;;;;19.25;62.79;101032.21;105705;1258;62070;-42
2023/05/19 04:59:45;;;;;;;18.30;8.90;;;;;;;19.34;62.06;101038.80;105893;1258;76540;-42
2023/05/19 05:02:12;;;;;;;16.20;8.30;;;;;;;19.51;61.38;101032.78;105909;1257;67472;-42
2023/05/19 05:04:42;;;;;;;16.20;8.50;;;;;;;19.66;61.12;101042.23;105619;1259;74441;-43
2023/05/19 05:07:10;;;;;;;16.10;8.60;;;;;;;19.87;60.29;101031.29;105654;1259;62497;-43
2023/05/19 05:09:43;;;;;;;22.50;8.10;;;;;;;19.98;59.98;101039.90;105682;1260;61786;-42
2023/05/19 05:12:12;;;;;;;18.10;9.70;;;;;;;20.09;59.76;101039.48;105828;1258;74566;-43
2023/05/19 05:14:40;;;;;;;18.00;8.10;;;;;;;20.32;59.17;101029.59;105815;1257;67620;-43
2023/05/19 05:17:08;;;;;;;18.80;8.00;;;;;;;20.54;58.66;101015.70;109572;1251;73337;-43
2023/05/19 05:19:36;;;;;;;26.80;8.70;;;;;;;20.79;58.11;101004.66;109588;1253;62424;-43
2023/05/19 05:22:05;;;;;;;17.60;7.20;;;;;;;21.06;58.09;101023.58;109486;1253;62690;-43
2023/05/19 05:24:33;;;;;;;21.80;8.50;;;;;;;21.37;56.80;100965.90;109569;1251;74931;-44
2023/05/19 05:27:02;;;;;;;17.60;7.10;;;;;;;21.64;55.37;100915.77;109497;1251;66242;-44
2023/05/19 05:29:30;;;;;;;19.20;6.40;;;;;;;21.86;54.53;100910.98;109580;1252;74969;-43
2023/05/19 05:31:57;;;;;;;14.50;6.70;;;;;;;22.09;53.02;100836.89;109623;1251;61803;-43
2023/05/19 05:34:24;;;;;;;15.60;6.90;;;;;;;22.29;52.30;100830.26;109608;1256;62016;-43
2023/05/19 05:39:39;;;;;;;25.00;5.90;;;;;;;22.67;50.09;100707.44;102731;1292;599949;-42
2023/05/19 05:42:09;;;;;;;27.10;8.10;;;;;;;22.76;49.36;100688.26;104893;1270;62127;-43
2023/05/19 05:44:39;;;;;;;19.60;8.80;;;;;;;22.91;48.30;100615.81;104856;1269;62499;-43
2023/05/19 05:47:06;;;;;;;20.70;6.90;;;;;;;23.03;48.22;100643.19;104808;1265;73346;-43
2023/05/19 05:49:37;;;;;;;12.80;6.80;;;;;;;23.21;47.68;100606.93;104829;1266;68677;-44
2023/05/19 05:52:05;;;;;;;15.00;5.40;;;;;;;23.34;47.28;100577.35;104873;1269;75474;-43
2023/05/19 05:54:39;;;;;;;20.00;6.30;;;;;;;23.41;46.70;100534.13;104975;1268;59300;-44
2023/05/19 05:57:07;;;;;;;17.80;5.90;;;;;;;23.46;47.20;100619.14;105033;1267;62358;-43
2023/05/19 05:59:35;;;;;;;22.00;6.30;;;;;;;23.58;46.99;100617.07;105128;1263;73817;-43
2023/05/19 06:02:03;;;;;;;25.80;8.10;;;;;;;23.67;46.63;100570.96;104835;1269;67108;-42
2023/05/19 06:04:31;;;;;;;23.90;7.00;;;;;;;23.71;46.50;100583.20;105111;1268;75584;-48
2023/05/19 06:07:00;;;;;;;16.40;6.00;;;;;;;23.78;46.72;100631.88;104912;1263;61567;-46
2023/05/19 06:09:32;;;;;;;19.60;6.80;;;;;;;23.86;46.38;100593.23;105494;1257;62723;-49
2023/05/19 06:11:59;;;;;;;23.20;5.80;;;;;;;23.92;46.45;100625.23;105578;1262;75536;-46
2023/05/19 06:14:29;;;;;;;22.50;6.20;;;;;;;23.96;45.94;100574.52;105629;1260;67888;-42
2023/05/19 06:17:11;;;;;;;14.60;5.30;;;;;;;24.02;45.63;100565.88;105543;1257;74479;-43
2023/05/19 06:19:38;;;;;;;18.00;5.20;;;;;;;24.09;45.51;100564.63;105476;1257;62810;-43
2023/05/19 06:22:06;;;;;;;11.90;5.10;;;;;;;24.19;44.86;100492.69;105632;1258;62700;-43
2023/05/19 06:24:33;;;;;;;14.00;4.80;;;;;;;24.27;44.52;100448.35;109262;1256;75225;-43
2023/05/19 06:27:02;;;;;;;8.90;4.50;;;;;;;24.36;44.28;100434.85;109123;1256;66537;-43
2023/05/19 06:29:29;;;;;;;11.30;4.70;;;;;;;24.48;43.38;100340.13;109126;1257;74906;-43
2023/05/19 06:31:59;;;;;;;8.90;4.00;;;;;;;24.55;42.70;100257.73;109101;1257;61403;-43
2023/05/19 06:34:26;;;;;;;14.30;4.70;;;;;;;24.58;43.04;100297.31;109241;1257;61315;-43
2023/05/19 06:39:40;;;;;;;9.10;4.30;;;;;;;24.80;42.10;100221.22;102948;1290;601025;-43
2023/05/19 06:42:07;;;;;;;5.70;4.20;;;;;;;24.82;42.12;100240.73;105140;1268;62782;-43
2023/05/19 06:44:54;;;;;;;14.20;4.20;;;;;;;25.00;42.24;100282.73;105052;1264;62898;-45
2023/05/19 06:47:22;;;;;;;13.00;4.30;;;;;;;25.11;41.00;100122.10;105206;1270;75018;-43
2023/05/19 06:49:53;;;;;;;14.90;4.10;;;;;;;25.11;41.28;100163.93;105887;1254;68027;-44
2023/05/19 06:52:23;;;;;;;6.60;4.10;;;;;;;25.17;40.46;100082.95;105639;1252;389547;-44
2023/05/19 06:54:51;;;;;;;7.20;4.30;;;;;;;25.14;39.99;100002.90;105967;1257;61954;-44
2023/05/19 06:57:19;;;;;;;9.80;3.70;;;;;;;25.05;40.73;100119.77;105972;1256;62481;-43
2023/05/19 06:59:47;;;;;;;6.50;4.10;;;;;;;25.18;40.70;100127.32;105870;1257;73924;-43
2023/05/19 07:02:14;;;;;;;8.20;3.90;;;;;;;25.37;39.87;100021.70;105896;1252;67639;-43
2023/05/19 07:04:41;;;;;;;6.90;3.20;;;;;;;25.44;39.44;99990.86;105999;1257;75858;-44
2023/05/19 07:07:10;;;;;;;12.10;3.70;;;;;;;25.48;39.10;99933.89;105960;1251;61618;-44
2023/05/19 07:09:37;;;;;;;12.20;4.00;;;;;;;25.58;39.55;100004.40;105918;1256;61765;-44
2023/05/19 07:12:05;;;;;;;11.50;3.60;;;;;;;25.78;38.72;99917.44;106020;1257;75526;-44
2023/05/19 07:14:32;;;;;;;26.50;4.20;;;;;;;25.94;37.20;99708.20;106008;1252;67875;-44
2023/05/19 07:17:00;;;;;;;10.00;3.70;;;;;;;26.08;36.92;99628.20;106006;1254;75650;-44
2023/05/19 07:19:27;;;;;;;12.60;3.70;;;;;;;26.25;37.14;99652.39;106023;1252;62558;-43
2023/05/19 07:21:55;;;;;;;18.80;3.60;;;;;;;26.38;36.17;99543.73;106020;1249;61915;-43
2023/05/19 07:24:23;;;;;;;7.60;2.90;;;;;;;26.50;34.32;99281.73;106030;1257;74750;-43
2023/05/19 07:26:51;;;;;;;19.90;3.50;;;;;;;26.60;34.41;99278.02;106057;1254;67943;-44
2023/05/19 07:29:18;;;;;;;7.10;3.10;;;;;;;26.77;33.30;99151.62;106008;1252;73927;-44
2023/05/19 07:31:45;;;;;;;8.70;2.70;;;;;;;26.83;32.52;99024.80;105968;1251;60893;-44
2023/05/19 07:34:12;;;;;;;13.50;2.70;;;;;;;26.89;32.55;98969.02;105988;1254;61361;-43
2023/05/19 07:36:40;;;;;;;6.40;2.60;;;;;;;26.96;32.25;98952.48;105960;1251;74353;-44
2023/05/19 07:39:07;;;;;;;9.20;2.80;;;;;;;27.08;32.00;98945.25;105713;1254;67051;-44
2023/05/19 07:41:34;;;;;;;9.00;3.80;;;;;;;27.22;32.34;98940.39;105642;1254;74105;-44
2023/05/19 07:44:06;;;;;;;11.00;3.20;;;;;;;27.39;32.35;98970.14;105674;1255;62385;-44
2023/05/19 07:46:34;;;;;;;6.80;2.80;;;;;;;27.57;31.68;98896.16;105708;1254;62805;-43
2023/05/19 07:49:01;;;;;;;4.70;2.80;;;;;;;27.64;31.94;98906.27;105727;1255;74793;-44
2023/05/19 07:51:28;;;;;;;6.20;3.00;;;;;;;27.67;31.69;98871.73;105823;1254;68021;-44
2023/05/19 07:53:56;;;;;;;8.30;2.80;;;;;;;27.44;32.03;98931.91;105704;1258;75635;-44
2023/05/19 07:56:23;;;;;;;20.10;3.40;;;;;;;27.14;30.71;98794.50;105683;1260;62979;-43
2023/05/19 07:58:50;;;;;;;5.40;2.20;;;;;;;26.86;30.82;98788.68;105600;1255;63142;-44
2023/05/19 08:01:18;;;;;;;4.70;2.30;;;;;;;26.71;30.83;98801.29;105647;1260;76223;-44
2023/05/19 08:03:45;;;;;;;7.70;2.70;;;;;;;26.72;30.70;98813.57;105669;1259;68171;-45
2023/05/19 08:06:12;;;;;;;12.70;2.50;;;;;;;26.81;31.50;98896.96;105666;1257;74419;-44
2023/05/19 08:08:39;;;;;;;4.50;2.30;;;;;;;26.92;31.00;98861.02;105637;1259;61522;-43
2023/05/19 08:11:06;;;;;;;13.60;2.50;;;;;;;26.89;31.70;98938.15;105706;1260;62821;-43
2023/05/19 08:13:33;;;;;;;5.30;2.30;;;;;;;26.78;31.41;98939.16;105639;1260;75384;-44
2023/05/19 08:16:00;;;;;;;3.50;1.90;;;;;;;26.57;31.30;98900.05;105652;1259;66900;-44
2023/05/19 08:18:28;;;;;;;9.50;2.00;;;;;;;26.44;32.06;99020.86;105644;1255;74625;-44
2023/05/19 08:20:55;;;;;;;13.30;2.20;;;;;;;26.49;32.59;99110.91;105672;1254;62824;-44
2023/05/19 08:23:22;;;;;;;1.80;1.70;;;;;;;26.56;30.87;98931.92;105675;1260;62897;-45
2023/05/19 08:25:49;;;;;;;11.60;2.10;;;;;;;26.45;30.99;98908.14;105527;1259;75404;-44
2023/05/19 08:28:16;;;;;;;6.90;2.00;;;;;;;26.32;30.85;98923.48;105702;1254;68304;-44
2023/05/19 08:30:44;;;;;;;2.80;2.00;;;;;;;26.30;30.90;98920.03;105692;1260;75221;-43
2023/05/19 08:33:11;;;;;;;10.30;2.30;;;;;;;26.27;31.67;99004.17;105706;1255;62997;-44
2023/05/19 08:35:38;;;;;;;2.10;2.00;;;;;;;26.28;31.54;99004.35;105571;1254;63389;-43
2023/05/19 08:38:05;;;;;;;11.60;2.70;;;;;;;26.36;32.52;99113.30;105665;1259;75113;-48
2023/05/19 08:40:32;;;;;;;10.70;2.40;;;;;;;26.66;31.67;99070.88;105894;1255;67731;-46
2023/05/19 08:43:00;;;;;;;9.00;2.20;;;;;;;26.99;30.42;98924.66;105387;1259;74069;-43
2023/05/19 08:45:27;;;;;;;8.10;2.20;;;;;;;27.33;29.25;98728.63;105812;1257;62642;-44
2023/05/19 08:47:54;;;;;;;6.10;2.10;;;;;;;27.65;29.75;98744.81;105908;1252;62021;-43
2023/05/19 08:53:15;;;;;;;12.80;2.70;;;;;;;28.20;28.11;98502.58;102742;1289;600953;-43
2023/05/19 08:56:14;;;;;;;8.30;2.40;;;;;;;27.96;28.15;98438.23;104914;1267;61803;-43
2023/05/19 08:58:42;;;;;;;6.80;2.30;;;;;;;27.54;27.84;98343.84;104947;1265;62936;-44
2023/05/19 09:01:12;;;;;;;3.90;1.90;;;;;;;27.12;28.30;98379.89;104888;1270;75477;-44
2023/05/19 09:03:39;;;;;;;7.30;2.60;;;;;;;26.78;29.06;98497.91;104922;1266;67414;-44
2023/05/19 09:06:08;;;;;;;6.20;2.60;;;;;;;26.54;30.09;98666.80;104661;1263;350507;-44
2023/05/19 09:08:36;;;;;;;3.60;3.20;;;;;;;26.43;30.37;98709.27;104882;1263;61686;-44
2023/05/19 09:11:03;;;;;;;5.50;2.50;;;;;;;26.42;30.11;98714.18;105176;1264;62512;-45
2023/05/19 09:13:30;;;;;;;22.70;3.40;;;;;;;26.36;30.55;98762.04;105178;1263;75412;-44
2023/05/19 09:15:57;;;;;;;7.40;2.40;;;;;;;26.40;30.95;98823.98;105179;1263;66277;-44
2023/05/19 09:18:25;;;;;;;8.90;2.10;;;;;;;26.62;30.41;98785.30;105187;1264;74580;-44
2023/05/19 09:20:59;;;;;;;6.40;2.50;;;;;;;26.94;29.65;98694.68;105104;1263;61706;-44
2023/05/19 09:23:32;;;;;;;7.60;2.30;;;;;;;27.20;29.11;98594.67;105158;1263;62919;-44
2023/05/19 09:26:06;;;;;;;2.20;2.10;;;;;;;27.46;29.27;98579.25;105210;1262;74902;-44
2023/05/19 09:28:35;;;;;;;9.40;2.00;;;;;;;27.77;29.39;98602.69;105192;1267;67895;-44
2023/05/19 09:31:06;;;;;;;158.80;8.60;;;;;;;28.16;28.47;98511.16;105122;1267;73595;-44
2023/05/19 09:33:35;;;;;;;7.70;2.50;;;;;;;28.56;28.37;98456.09;105196;1267;62586;-44
2023/05/19 09:36:04;;;;;;;6.30;2.30;;;;;;;28.96;28.51;98459.48;105184;1263;62495;-43
2023/05/19 09:38:32;;;;;;;7.50;2.10;;;;;;;29.29;27.23;98282.91;105071;1263;75992;-44
2023/05/19 09:40:59;;;;;;;9.30;2.10;;;;;;;29.56;27.07;98230.52;105141;1263;66943;-45
2023/05/19 09:43:32;;;;;;;7.80;2.30;;;;;;;29.81;26.30;98102.07;105097;1267;75013;-44
2023/05/19 09:46:01;;;;;;;6.90;2.30;;;;;;;30.07;27.27;98155.80;105172;1265;61838;-44
2023/05/19 09:48:29;;;;;;;5.60;2.50;;;;;;;30.50;26.29;98074.13;105151;1263;62442;-44
2023/05/19 09:50:56;;;;;;;4.60;2.80;;;;;;;30.80;26.91;98055.00;105135;1267;75518;-45
2023/05/19 09:53:24;;;;;;;8.20;2.60;;;;;;;31.15;26.66;98026.13;105200;1263;66688;-45
2023/05/19 09:55:56;;;;;;;17.70;3.60;;;;;;;31.30;25.28;97783.23;105210;1266;74513;-45
2023/05/19 09:58:25;;;;;;;14.40;2.90;;;;;;;30.90;25.38;97747.58;105162;1263;61890;-43
2023/05/19 10:00:56;;;;;;;8.70;2.70;;;;;;;30.54;25.98;97841.89;105597;1261;61577;-44
2023/05/19 10:03:23;;;;;;;5.30;2.70;;;;;;;30.40;26.40;97903.00;105891;1256;76216;-45
2023/05/19 10:05:50;;;;;;;4.80;2.50;;;;;;;30.22;26.38;97951.58;105731;1253;67191;-44
2023/05/19 10:08:17;;;;;;;7.80;2.70;;;;;;;29.93;26.82;97983.49;105735;1257;75297;-44
2023/05/19 10:10:45;;;;;;;19.50;3.10;;;;;;;29.60;27.08;98046.34;105865;1253;62578;-45
2023/05/19 10:13:12;;;;;;;9.60;2.70;;;;;;;29.22;27.16;98065.59;105843;1253;62816;-45
2023/05/19 10:15:40;;;;;;;7.10;3.30;;;;;;;28.83;26.95;98039.48;105894;1256;75522;-44
2023/05/19 10:18:25;;;;;;;10.20;3.00;;;;;;;28.45;27.35;98099.95;105831;1256;67906;-45
2023/05/19 10:20:52;;;;;;;7.80;3.20;;;;;;;28.25;28.03;98203.14;105867;1253;74270;-45
2023/05/19 10:23:19;;;;;;;14.60;3.40;;;;;;;28.00;28.72;98280.38;105863;1258;61528;-44
2023/05/19 10:25:48;;;;;;;6.90;3.20;;;;;;;27.84;28.56;98295.83;105953;1254;62724;-44
2023/05/19 10:28:16;;;;;;;3.30;2.90;;;;;;;27.89;27.81;98270.61;105898;1256;74641;-44
2023/05/19 10:30:44;;;;;;;6.10;2.90;;;;;;;28.22;27.13;98185.71;105876;1256;66742;-44
2023/05/19 10:33:16;;;;;;;6.70;3.60;;;;;;;28.69;27.00;98142.85;105905;1254;75795;-45
2023/05/19 10:36:01;;;;;;;7.70;3.20;;;;;;;29.18;26.92;98119.88;105884;1253;62186;-44
2023/05/19 10:38:49;;;;;;;10.00;3.10;;;;;;;29.65;26.22;98045.05;105898;1259;62084;-44
2023/05/19 10:41:46;;;;;;;11.00;2.50;;;;;;;30.04;26.57;98062.38;105859;1253;75370;-45
2023/05/19 10:44:20;;;;;;;5.80;2.60;;;;;;;29.84;27.03;98081.10;105917;1256;68115;-43
2023/05/19 10:46:48;;;;;;;6.20;2.80;;;;;;;29.38;27.18;98149.38;105907;1252;73885;-45
2023/05/19 10:49:21;;;;;;;11.90;2.60;;;;;;;28.91;27.76;98217.41;105940;1257;62720;-45
2023/05/19 10:51:49;;;;;;;11.40;2.60;;;;;;;28.48;28.63;98330.88;105756;1259;61906;-44
2023/05/19 10:54:17;;;;;;;8.10;2.30;;;;;;;28.19;29.02;98417.05;105740;1252;74279;-44
2023/05/19 10:56:47;;;;;;;7.10;2.40;;;;;;;27.84;29.62;98495.46;105907;1252;67916;-45
2023/05/19 10:59:31;;;;;;;8.50;2.60;;;;;;;27.49;30.12;98543.98;105633;1253;75217;-44
2023/05/19 11:02:02;;;;;;;7.40;2.80;;;;;;;27.23;30.81;98671.02;105842;1252;62864;-44
2023/05/19 11:04:46;;;;;;;9.20;3.10;;;;;;;27.06;31.07;98704.20;105913;1257;62058;-44
2023/05/19 11:07:23;;;;;;;9.60;3.50;;;;;;;26.93;30.87;98724.13;105832;1253;75700;-44
2023/05/19 11:09:51;;;;;;;9.60;2.80;;;;;;;27.00;30.11;98675.30;105933;1251;67594;-44
2023/05/19 11:12:22;;;;;;;9.30;3.30;;;;;;;27.34;29.54;98611.88;105783;1253;74399;-44
2023/05/19 11:14:52;;;;;;;4.30;2.30;;;;;;;27.90;29.84;98634.48;105911;1253;60978;-44
2023/05/19 11:17:21;;;;;;;4.80;2.70;;;;;;;28.43;29.03;98536.29;105676;1254;62793;-45
2023/05/19 11:19:53;;;;;;;5.50;3.20;;;;;;;28.96;29.22;98559.73;105867;1255;75481;-45
2023/05/19 11:22:24;;;;;;;5.60;2.70;;;;;;;29.49;27.97;98423.41;105877;1252;68443;-44
2023/05/19 11:24:55;;;;;;;3.10;1.80;;;;;;;29.60;28.25;98387.33;105868;1253;74433;-45
2023/05/19 11:27:33;;;;;;;16.60;2.50;;;;;;;29.46;28.27;98407.39;105915;1255;61541;-43
2023/05/19 11:30:13;;;;;;;7.70;2.90;;;;;;;29.13;27.46;98294.35;105897;1251;62895;-44